sensor_id;sensor_type;location;lat;lon;timestamp;pressure;altitude;pressure_sealevel;temperature;humidity
64602;BME280;68371;42.630;23.192;2024-03-07T00:00:12;92078.00;;;7.25;100.00
64602;BME280;68371;42.630;23.192;2024-03-07T00:02:44;92061.09;;;7.10;99.67
64602;BME280;68371;42.630;23.192;2024-03-07T00:05:11;92090.75;;;7.27;99.67
64602;BME280;68371;42.630;23.192;2024-03-07T00:07:40;92085.72;;;7.21;99.73
64602;BME280;68371;42.630;23.192;2024-03-07T00:10:07;92077.34;;;7.16;99.43
64602;BME280;68371;42.630;23.192;2024-03-07T00:12:35;92081.28;;;7.22;99.02
64602;BME280;68371;42.630;23.192;2024-03-07T00:15:02;92043.91;;;6.88;98.19
64602;BME280;68371;42.630;23.192;2024-03-07T00:17:29;92070.25;;;6.95;97.07
64602;BME280;68371;42.630;23.192;2024-03-07T00:19:57;92066.22;;;6.86;97.60
64602;BME280;68371;42.630;23.192;2024-03-07T00:22:24;92040.75;;;6.61;97.29
64602;BME280;68371;42.630;23.192;2024-03-07T00:24:54;92067.75;;;6.66;96.58
64602;BME280;68371;42.630;23.192;2024-03-07T00:27:20;92071.94;;;6.58;97.50
64602;BME280;68371;42.630;23.192;2024-03-07T00:29:47;92078.84;;;6.33;97.86
64602;BME280;68371;42.630;23.192;2024-03-07T00:32:19;92071.50;;;6.26;97.94
64602;BME280;68371;42.630;23.192;2024-03-07T00:34:45;92073.50;;;6.29;98.05
64602;BME280;68371;42.630;23.192;2024-03-07T00:37:12;92058.56;;;6.09;99.15
64602;BME280;68371;42.630;23.192;2024-03-07T00:39:39;92064.09;;;6.07;99.75
64602;BME280;68371;42.630;23.192;2024-03-07T00:42:07;92065.97;;;5.98;99.33
64602;BME280;68371;42.630;23.192;2024-03-07T00:44:35;92063.19;;;6.03;99.92
64602;BME280;68371;42.630;23.192;2024-03-07T00:47:02;92038.06;;;5.90;100.00
64602;BME280;68371;42.630;23.192;2024-03-07T00:49:29;92057.78;;;6.08;100.00
64602;BME280;68371;42.630;23.192;2024-03-07T00:51:58;91920.66;;;5.18;99.97
64602;BME280;68371;42.630;23.192;2024-03-07T00:54:24;92050.59;;;6.05;99.41
64602;BME280;68371;42.630;23.192;2024-03-07T00:56:52;92044.88;;;5.82;97.54
64602;BME280;68371;42.630;23.192;2024-03-07T00:59:22;92041.31;;;5.87;99.38
64602;BME280;68371;42.630;23.192;2024-03-07T01:01:49;92039.16;;;5.89;98.24
64602;BME280;68371;42.630;23.192;2024-03-07T01:04:16;92033.75;;;5.94;99.31
64602;BME280;68371;42.630;23.192;2024-03-07T01:06:42;92023.50;;;5.89;98.12
64602;BME280;68371;42.630;23.192;2024-03-07T01:09:09;92019.59;;;5.74;95.81
64602;BME280;68371;42.630;23.192;2024-03-07T01:11:40;91986.31;;;5.41;97.33
64602;BME280;68371;42.630;23.192;2024-03-07T01:14:06;92027.97;;;5.50;96.77
64602;BME280;68371;42.630;23.192;2024-03-07T01:16:34;92028.59;;;5.47;96.77
64602;BME280;68371;42.630;23.192;2024-03-07T01:19:01;92030.56;;;5.50;98.02
64602;BME280;68371;42.630;23.192;2024-03-07T01:21:31;92033.22;;;5.32;98.53
64602;BME280;68371;42.630;23.192;2024-03-07T01:23:58;92022.09;;;5.06;98.31
64602;BME280;68371;42.630;23.192;2024-03-07T01:26:27;92018.69;;;5.31;97.79
64602;BME280;68371;42.630;23.192;2024-03-07T01:28:54;92025.97;;;5.47;97.54
64602;BME280;68371;42.630;23.192;2024-03-07T01:31:23;92023.78;;;5.57;99.06
64602;BME280;68371;42.630;23.192;2024-03-07T01:33:51;92011.34;;;5.72;100.00
64602;BME280;68371;42.630;23.192;2024-03-07T01:36:18;92011.91;;;5.77;100.00
64602;BME280;68371;42.630;23.192;2024-03-07T01:38:45;92013.59;;;5.73;100.00
64602;BME280;68371;42.630;23.192;2024-03-07T01:41:12;92025.38;;;5.79;100.00
64602;BME280;68371;42.630;23.192;2024-03-07T01:43:40;91987.88;;;5.33;100.00
64602;BME280;68371;42.630;23.192;2024-03-07T01:46:07;92039.59;;;5.52;98.99
64602;BME280;68371;42.630;23.192;2024-03-07T01:48:34;92051.16;;;5.34;98.27
64602;BME280;68371;42.630;23.192;2024-03-07T01:51:03;92031.00;;;4.96;98.26
64602;BME280;68371;42.630;23.192;2024-03-07T01:53:31;92048.47;;;4.87;98.55
64602;BME280;68371;42.630;23.192;2024-03-07T01:55:59;92053.03;;;4.72;99.87
64602;BME280;68371;42.630;23.192;2024-03-07T01:58:31;92046.19;;;4.59;100.00
64602;BME280;68371;42.630;23.192;2024-03-07T02:00:58;91985.56;;;4.06;100.00
64602;BME280;68371;42.630;23.192;2024-03-07T02:03:25;92043.84;;;4.31;100.00
64602;BME280;68371;42.630;23.192;2024-03-07T02:05:54;92044.47;;;4.37;100.00
64602;BME280;68371;42.630;23.192;2024-03-07T02:08:22;92033.91;;;4.25;100.00
64602;BME280;68371;42.630;23.192;2024-03-07T02:10:48;92033.28;;;4.19;100.00
64602;BME280;68371;42.630;23.192;2024-03-07T02:13:15;92025.78;;;4.17;100.00
64602;BME280;68371;42.630;23.192;2024-03-07T02:15:43;91988.00;;;4.11;100.00
64602;BME280;68371;42.630;23.192;2024-03-07T02:18:09;92000.25;;;4.46;100.00
64602;BME280;68371;42.630;23.192;2024-03-07T02:20:36;92015.72;;;4.59;100.00
64602;BME280;68371;42.630;23.192;2024-03-07T02:23:04;92016.94;;;4.45;100.00
64602;BME280;68371;42.630;23.192;2024-03-07T02:25:31;92022.59;;;4.47;100.00
64602;BME280;68371;42.630;23.192;2024-03-07T02:28:03;92027.66;;;4.52;100.00
64602;BME280;68371;42.630;23.192;2024-03-07T02:30:30;92031.50;;;4.54;100.00
64602;BME280;68371;42.630;23.192;2024-03-07T02:32:59;92032.84;;;4.69;100.00
64602;BME280;68371;42.630;23.192;2024-03-07T02:35:32;92021.53;;;4.65;100.00
64602;BME280;68371;42.630;23.192;2024-03-07T02:37:59;92042.78;;;4.76;100.00
64602;BME280;68371;42.630;23.192;2024-03-07T02:40:29;92042.34;;;4.56;100.00
64602;BME280;68371;42.630;23.192;2024-03-07T02:42:56;92045.84;;;4.43;100.00
64602;BME280;68371;42.630;23.192;2024-03-07T02:45:25;92039.44;;;4.58;100.00
64602;BME280;68371;42.630;23.192;2024-03-07T02:47:52;92029.63;;;4.64;100.00
64602;BME280;68371;42.630;23.192;2024-03-07T02:50:19;92023.22;;;4.87;100.00
64602;BME280;68371;42.630;23.192;2024-03-07T02:52:47;92017.53;;;4.85;100.00
64602;BME280;68371;42.630;23.192;2024-03-07T02:55:14;92017.97;;;4.96;100.00
64602;BME280;68371;42.630;23.192;2024-03-07T02:57:42;92020.56;;;5.05;100.00
64602;BME280;68371;42.630;23.192;2024-03-07T03:00:10;92021.81;;;5.07;100.00
64602;BME280;68371;42.630;23.192;2024-03-07T03:02:45;92025.31;;;5.11;100.00
64602;BME280;68371;42.630;23.192;2024-03-07T03:05:13;92031.59;;;5.10;100.00
64602;BME280;68371;42.630;23.192;2024-03-07T03:07:40;92037.41;;;5.07;100.00
64602;BME280;68371;42.630;23.192;2024-03-07T03:10:08;92033.13;;;5.11;100.00
64602;BME280;68371;42.630;23.192;2024-03-07T03:12:36;92034.50;;;5.17;99.77
64602;BME280;68371;42.630;23.192;2024-03-07T03:15:06;92013.53;;;5.05;99.81
64602;BME280;68371;42.630;23.192;2024-03-07T03:17:35;92034.91;;;5.28;99.91
64602;BME280;68371;42.630;23.192;2024-03-07T03:20:02;92036.13;;;5.39;100.00
64602;BME280;68371;42.630;23.192;2024-03-07T03:22:35;92035.78;;;5.41;100.00
64602;BME280;68371;42.630;23.192;2024-03-07T03:25:02;92036.41;;;5.47;99.18
64602;BME280;68371;42.630;23.192;2024-03-07T03:27:29;92046.66;;;5.52;97.12
64602;BME280;68371;42.630;23.192;2024-03-07T03:29:57;92055.84;;;5.58;98.87
64602;BME280;68371;42.630;23.192;2024-03-07T03:32:28;92017.91;;;5.31;99.53
64602;BME280;68371;42.630;23.192;2024-03-07T03:34:55;92036.97;;;5.61;100.00
64602;BME280;68371;42.630;23.192;2024-03-07T03:37:21;92025.13;;;5.63;100.00
64602;BME280;68371;42.630;23.192;2024-03-07T03:39:48;92006.03;;;5.51;100.00
64602;BME280;68371;42.630;23.192;2024-03-07T03:42:15;92013.78;;;5.68;100.00
64602;BME280;68371;42.630;23.192;2024-03-07T03:44:42;92014.84;;;5.76;100.00
64602;BME280;68371;42.630;23.192;2024-03-07T03:47:09;92015.75;;;5.71;99.92
64602;BME280;68371;42.630;23.192;2024-03-07T03:49:37;92013.94;;;5.72;100.00
64602;BME280;68371;42.630;23.192;2024-03-07T03:52:04;91997.72;;;5.66;100.00
64602;BME280;68371;42.630;23.192;2024-03-07T03:54:34;91977.53;;;5.54;99.93
64602;BME280;68371;42.630;23.192;2024-03-07T03:57:01;92008.81;;;5.84;100.00
64602;BME280;68371;42.630;23.192;2024-03-07T03:59:31;91999.81;;;5.73;100.00
64602;BME280;68371;42.630;23.192;2024-03-07T04:01:58;91998.13;;;5.77;99.67
64602;BME280;68371;42.630;23.192;2024-03-07T04:04:25;92016.66;;;5.84;99.59
64602;BME280;68371;42.630;23.192;2024-03-07T04:06:53;92001.38;;;5.74;99.74
64602;BME280;68371;42.630;23.192;2024-03-07T04:09:20;92018.66;;;5.78;99.83
64602;BME280;68371;42.630;23.192;2024-03-07T04:11:48;92022.22;;;5.74;99.63
64602;BME280;68371;42.630;23.192;2024-03-07T04:14:15;92021.25;;;5.78;99.74
64602;BME280;68371;42.630;23.192;2024-03-07T04:16:42;92026.94;;;5.80;99.74
64602;BME280;68371;42.630;23.192;2024-03-07T04:19:08;91996.34;;;5.60;98.93
64602;BME280;68371;42.630;23.192;2024-03-07T04:21:35;92016.22;;;5.73;98.97
64602;BME280;68371;42.630;23.192;2024-03-07T04:24:05;92024.22;;;5.68;99.63
64602;BME280;68371;42.630;23.192;2024-03-07T04:26:34;92027.44;;;5.74;99.30
64602;BME280;68371;42.630;23.192;2024-03-07T04:29:01;92028.78;;;5.80;99.37
64602;BME280;68371;42.630;23.192;2024-03-07T04:31:30;92023.22;;;5.81;99.73
64602;BME280;68371;42.630;23.192;2024-03-07T04:33:57;92010.25;;;5.73;99.39
64602;BME280;68371;42.630;23.192;2024-03-07T04:36:24;92019.56;;;5.82;99.27
64602;BME280;68371;42.630;23.192;2024-03-07T04:38:51;92004.56;;;5.71;99.05
64602;BME280;68371;42.630;23.192;2024-03-07T04:41:19;92016.06;;;5.78;99.30
64602;BME280;68371;42.630;23.192;2024-03-07T04:43:46;92015.56;;;5.85;98.82
64602;BME280;68371;42.630;23.192;2024-03-07T04:46:12;92010.56;;;5.71;99.40
64602;BME280;68371;42.630;23.192;2024-03-07T04:48:39;92014.50;;;5.77;99.46
64602;BME280;68371;42.630;23.192;2024-03-07T04:51:06;91999.72;;;5.60;99.74
64602;BME280;68371;42.630;23.192;2024-03-07T04:53:33;92016.94;;;5.82;99.79
64602;BME280;68371;42.630;23.192;2024-03-07T04:56:07;92023.81;;;5.87;99.94
64602;BME280;68371;42.630;23.192;2024-03-07T04:58:37;92021.53;;;5.86;99.90
64602;BME280;68371;42.630;23.192;2024-03-07T05:01:08;92027.97;;;5.88;100.00
64602;BME280;68371;42.630;23.192;2024-03-07T05:03:36;92024.25;;;5.98;100.00
64602;BME280;68371;42.630;23.192;2024-03-07T05:06:03;92022.44;;;5.98;100.00
64602;BME280;68371;42.630;23.192;2024-03-07T05:08:31;92022.44;;;5.98;99.99
64602;BME280;68371;42.630;23.192;2024-03-07T05:10:58;92020.13;;;5.97;99.85
64602;BME280;68371;42.630;23.192;2024-03-07T05:13:25;92020.38;;;6.04;99.74
64602;BME280;68371;42.630;23.192;2024-03-07T05:15:53;92018.66;;;6.08;99.51
64602;BME280;68371;42.630;23.192;2024-03-07T05:18:20;92027.59;;;6.07;99.59
64602;BME280;68371;42.630;23.192;2024-03-07T05:20:47;92027.59;;;6.07;99.74
64602;BME280;68371;42.630;23.192;2024-03-07T05:23:14;92022.81;;;6.09;99.54
64602;BME280;68371;42.630;23.192;2024-03-07T05:25:41;92039.09;;;6.06;99.73
64602;BME280;68371;42.630;23.192;2024-03-07T05:28:11;92035.00;;;5.96;99.98
64602;BME280;68371;42.630;23.192;2024-03-07T05:30:38;92033.91;;;5.97;100.00
64602;BME280;68371;42.630;23.192;2024-03-07T05:33:07;92020.16;;;5.79;100.00
64602;BME280;68371;42.630;23.192;2024-03-07T05:35:34;92034.38;;;5.91;100.00
64602;BME280;68371;42.630;23.192;2024-03-07T05:38:01;92041.75;;;5.97;100.00
64602;BME280;68371;42.630;23.192;2024-03-07T05:40:30;92041.28;;;5.95;100.00
64602;BME280;68371;42.630;23.192;2024-03-07T05:42:58;92042.84;;;5.96;100.00
64602;BME280;68371;42.630;23.192;2024-03-07T05:45:25;92041.47;;;5.90;100.00
64602;BME280;68371;42.630;23.192;2024-03-07T05:47:52;92037.75;;;5.91;100.00
64602;BME280;68371;42.630;23.192;2024-03-07T05:50:20;92024.00;;;5.82;100.00
64602;BME280;68371;42.630;23.192;2024-03-07T05:52:46;92055.25;;;5.91;100.00
64602;BME280;68371;42.630;23.192;2024-03-07T05:55:14;92052.94;;;5.98;100.00
64602;BME280;68371;42.630;23.192;2024-03-07T05:57:41;92057.84;;;5.99;100.00
64602;BME280;68371;42.630;23.192;2024-03-07T06:00:10;92068.34;;;5.82;100.00
64602;BME280;68371;42.630;23.192;2024-03-07T06:02:39;92071.06;;;5.86;100.00
64602;BME280;68371;42.630;23.192;2024-03-07T06:05:06;92053.66;;;5.69;100.00
64602;BME280;68371;42.630;23.192;2024-03-07T06:07:40;92080.16;;;5.71;100.00
64602;BME280;68371;42.630;23.192;2024-03-07T06:10:08;92087.38;;;5.74;100.00
64602;BME280;68371;42.630;23.192;2024-03-07T06:12:36;92068.88;;;5.58;100.00
64602;BME280;68371;42.630;23.192;2024-03-07T06:15:10;92047.28;;;5.49;100.00
64602;BME280;68371;42.630;23.192;2024-03-07T06:17:37;92088.75;;;5.71;100.00
64602;BME280;68371;42.630;23.192;2024-03-07T06:20:06;92074.00;;;5.75;100.00
64602;BME280;68371;42.630;23.192;2024-03-07T06:22:49;92086.47;;;5.61;100.00
64602;BME280;68371;42.630;23.192;2024-03-07T06:25:16;92081.75;;;5.54;100.00
64602;BME280;68371;42.630;23.192;2024-03-07T06:27:45;92089.19;;;5.73;100.00
64602;BME280;68371;42.630;23.192;2024-03-07T06:30:14;92081.47;;;5.86;100.00
64602;BME280;68371;42.630;23.192;2024-03-07T06:32:43;92056.53;;;5.76;100.00
64602;BME280;68371;42.630;23.192;2024-03-07T06:35:11;92077.75;;;6.04;100.00
64602;BME280;68371;42.630;23.192;2024-03-07T06:37:37;92079.44;;;6.09;100.00
64602;BME280;68371;42.630;23.192;2024-03-07T06:40:14;92082.16;;;6.12;100.00
64602;BME280;68371;42.630;23.192;2024-03-07T06:42:46;92079.25;;;6.14;100.00
64602;BME280;68371;42.630;23.192;2024-03-07T06:45:13;92081.25;;;6.08;100.00
64602;BME280;68371;42.630;23.192;2024-03-07T06:47:41;92079.69;;;6.16;100.00
64602;BME280;68371;42.630;23.192;2024-03-07T06:50:09;92086.97;;;6.01;99.13
64602;BME280;68371;42.630;23.192;2024-03-07T06:52:42;92053.72;;;5.90;99.50
64602;BME280;68371;42.630;23.192;2024-03-07T06:55:12;92077.22;;;6.19;99.94
64602;BME280;68371;42.630;23.192;2024-03-07T06:57:39;92069.09;;;6.21;99.95
64602;BME280;68371;42.630;23.192;2024-03-07T07:00:09;92061.50;;;6.37;100.00
64602;BME280;68371;42.630;23.192;2024-03-07T07:02:38;92053.06;;;6.31;100.00
64602;BME280;68371;42.630;23.192;2024-03-07T07:05:07;92051.06;;;6.37;100.00
64602;BME280;68371;42.630;23.192;2024-03-07T07:07:42;92025.34;;;6.27;100.00
64602;BME280;68371;42.630;23.192;2024-03-07T07:10:13;92060.59;;;6.54;100.00
64602;BME280;68371;42.630;23.192;2024-03-07T07:12:44;92060.44;;;6.59;100.00
64602;BME280;68371;42.630;23.192;2024-03-07T07:15:15;92035.94;;;6.42;100.00
64602;BME280;68371;42.630;23.192;2024-03-07T07:17:44;92069.00;;;6.59;100.00
64602;BME280;68371;42.630;23.192;2024-03-07T07:20:13;92068.09;;;6.34;100.00
64602;BME280;68371;42.630;23.192;2024-03-07T07:22:40;92072.84;;;6.32;99.75
64602;BME280;68371;42.630;23.192;2024-03-07T07:25:09;92070.81;;;6.17;99.23
64602;BME280;68371;42.630;23.192;2024-03-07T07:27:44;92070.94;;;6.20;99.50
64602;BME280;68371;42.630;23.192;2024-03-07T07:30:14;92054.16;;;6.00;99.51
64602;BME280;68371;42.630;23.192;2024-03-07T07:32:41;92044.28;;;6.06;99.89
64602;BME280;68371;42.630;23.192;2024-03-07T07:35:10;92047.63;;;6.15;100.00
64602;BME280;68371;42.630;23.192;2024-03-07T07:37:40;92045.44;;;5.96;100.00
64602;BME280;68371;42.630;23.192;2024-03-07T07:40:11;92030.47;;;5.76;100.00
64602;BME280;68371;42.630;23.192;2024-03-07T07:42:49;92051.91;;;5.81;100.00
64602;BME280;68371;42.630;23.192;2024-03-07T07:45:17;92052.00;;;5.94;100.00
64602;BME280;68371;42.630;23.192;2024-03-07T07:47:45;92059.69;;;5.99;100.00
64602;BME280;68371;42.630;23.192;2024-03-07T07:50:16;92054.03;;;5.88;100.00
64602;BME280;68371;42.630;23.192;2024-03-07T07:52:47;92063.06;;;5.99;100.00
64602;BME280;68371;42.630;23.192;2024-03-07T07:55:16;92069.94;;;6.04;100.00
64602;BME280;68371;42.630;23.192;2024-03-07T07:57:45;91985.38;;;5.46;99.71
64602;BME280;68371;42.630;23.192;2024-03-07T08:00:17;92025.72;;;5.69;100.00
64602;BME280;68371;42.630;23.192;2024-03-07T08:02:49;92086.31;;;6.13;100.00
64602;BME280;68371;42.630;23.192;2024-03-07T08:05:17;92069.22;;;5.95;100.00
64602;BME280;68371;42.630;23.192;2024-03-07T08:07:47;92092.13;;;6.10;100.00
64602;BME280;68371;42.630;23.192;2024-03-07T08:10:17;92091.63;;;6.26;100.00
64602;BME280;68371;42.630;23.192;2024-03-07T08:12:46;92098.81;;;6.29;100.00
64602;BME280;68371;42.630;23.192;2024-03-07T08:15:16;92038.38;;;5.97;100.00
64602;BME280;68371;42.630;23.192;2024-03-07T08:17:44;92098.78;;;6.58;97.39
64602;BME280;68371;42.630;23.192;2024-03-07T08:20:13;92102.44;;;6.66;97.48
64602;BME280;68371;42.630;23.192;2024-03-07T08:22:42;92104.97;;;6.75;96.38
64602;BME280;68371;42.630;23.192;2024-03-07T08:25:10;92106.66;;;6.79;96.81
64602;BME280;68371;42.630;23.192;2024-03-07T08:27:38;92105.63;;;6.93;96.06
64602;BME280;68371;42.630;23.192;2024-03-07T08:30:06;92103.97;;;7.09;95.69
64602;BME280;68371;42.630;23.192;2024-03-07T08:32:34;92110.19;;;7.17;95.34
64602;BME280;68371;42.630;23.192;2024-03-07T08:35:04;92113.75;;;7.33;95.50
64602;BME280;68371;42.630;23.192;2024-03-07T08:37:33;92109.72;;;7.36;97.62
64602;BME280;68371;42.630;23.192;2024-03-07T08:40:00;92112.81;;;7.17;89.66
64602;BME280;68371;42.630;23.192;2024-03-07T08:42:30;92111.75;;;7.18;90.63
64602;BME280;68371;42.630;23.192;2024-03-07T08:44:57;92109.00;;;6.93;91.18
64602;BME280;68371;42.630;23.192;2024-03-07T08:47:24;92121.34;;;7.26;90.57
64602;BME280;68371;42.630;23.192;2024-03-07T08:49:52;92129.00;;;7.31;89.88
64602;BME280;68371;42.630;23.192;2024-03-07T08:52:19;92124.72;;;7.27;89.05
64602;BME280;68371;42.630;23.192;2024-03-07T08:54:49;92134.81;;;7.16;88.90
64602;BME280;68371;42.630;23.192;2024-03-07T08:57:17;92132.13;;;7.25;87.20
64602;BME280;68371;42.630;23.192;2024-03-07T08:59:46;92109.84;;;7.06;86.92
64602;BME280;68371;42.630;23.192;2024-03-07T09:02:14;92138.16;;;7.37;88.48
64602;BME280;68371;42.630;23.192;2024-03-07T09:04:41;92134.28;;;7.22;86.13
64602;BME280;68371;42.630;23.192;2024-03-07T09:07:09;92134.47;;;7.17;85.62
64602;BME280;68371;42.630;23.192;2024-03-07T09:09:35;92128.44;;;7.05;84.99
64602;BME280;68371;42.630;23.192;2024-03-07T09:12:03;92127.38;;;7.06;85.59
64602;BME280;68371;42.630;23.192;2024-03-07T09:14:31;92137.09;;;6.96;86.21
64602;BME280;68371;42.630;23.192;2024-03-07T09:16:58;92129.41;;;7.00;85.48
64602;BME280;68371;42.630;23.192;2024-03-07T09:19:24;92136.63;;;7.15;85.49
64602;BME280;68371;42.630;23.192;2024-03-07T09:21:52;92136.41;;;7.08;84.91
64602;BME280;68371;42.630;23.192;2024-03-07T09:24:21;92138.50;;;7.15;85.13
64602;BME280;68371;42.630;23.192;2024-03-07T09:26:49;92139.72;;;6.96;85.60
64602;BME280;68371;42.630;23.192;2024-03-07T09:29:17;92138.16;;;6.95;86.73
64602;BME280;68371;42.630;23.192;2024-03-07T09:31:46;92142.56;;;6.82;87.66
64602;BME280;68371;42.630;23.192;2024-03-07T09:34:14;92108.25;;;6.72;87.81
64602;BME280;68371;42.630;23.192;2024-03-07T09:36:42;92144.19;;;6.96;86.06
64602;BME280;68371;42.630;23.192;2024-03-07T09:39:08;92137.69;;;7.02;85.00
64602;BME280;68371;42.630;23.192;2024-03-07T09:41:39;92140.03;;;6.95;84.18
64602;BME280;68371;42.630;23.192;2024-03-07T09:44:07;92128.38;;;6.92;85.46
64602;BME280;68371;42.630;23.192;2024-03-07T09:46:36;92098.09;;;6.91;86.14
64602;BME280;68371;42.630;23.192;2024-03-07T09:49:04;92126.91;;;7.04;85.34
64602;BME280;68371;42.630;23.192;2024-03-07T09:51:35;92119.59;;;7.18;84.97
64602;BME280;68371;42.630;23.192;2024-03-07T09:54:02;92132.03;;;7.33;84.05
64602;BME280;68371;42.630;23.192;2024-03-07T09:56:30;92133.75;;;7.50;82.64
64602;BME280;68371;42.630;23.192;2024-03-07T09:59:00;92126.19;;;7.70;84.20
64602;BME280;68371;42.630;23.192;2024-03-07T10:01:27;92114.84;;;7.66;78.50
64602;BME280;68371;42.630;23.192;2024-03-07T10:03:58;92125.56;;;7.85;77.24
64602;BME280;68371;42.630;23.192;2024-03-07T10:06:26;92099.63;;;7.80;80.23
64602;BME280;68371;42.630;23.192;2024-03-07T10:08:55;92069.53;;;7.74;78.50
64602;BME280;68371;42.630;23.192;2024-03-07T10:11:23;92117.22;;;8.16;79.47
64602;BME280;68371;42.630;23.192;2024-03-07T10:13:52;92059.41;;;7.85;77.29
64602;BME280;68371;42.630;23.192;2024-03-07T10:16:22;92107.19;;;8.18;78.09
64602;BME280;68371;42.630;23.192;2024-03-07T10:18:48;92100.19;;;8.22;80.15
64602;BME280;68371;42.630;23.192;2024-03-07T10:21:18;92095.84;;;8.39;79.24
64602;BME280;68371;42.630;23.192;2024-03-07T10:23:47;92101.44;;;8.50;76.51
64602;BME280;68371;42.630;23.192;2024-03-07T10:26:15;92100.44;;;8.54;75.04
64602;BME280;68371;42.630;23.192;2024-03-07T10:28:42;92096.28;;;8.66;76.46
64602;BME280;68371;42.630;23.192;2024-03-07T10:31:09;92096.41;;;8.57;75.57
64602;BME280;68371;42.630;23.192;2024-03-07T10:33:39;92083.44;;;8.48;74.68
64602;BME280;68371;42.630;23.192;2024-03-07T10:36:07;92101.63;;;8.69;74.65
64602;BME280;68371;42.630;23.192;2024-03-07T10:38:40;92102.59;;;8.77;76.61
64602;BME280;68371;42.630;23.192;2024-03-07T10:41:08;92102.38;;;8.82;72.65
64602;BME280;68371;42.630;23.192;2024-03-07T10:43:36;92107.38;;;8.87;74.59
64602;BME280;68371;42.630;23.192;2024-03-07T10:46:09;92100.94;;;8.85;72.75
64602;BME280;68371;42.630;23.192;2024-03-07T10:48:39;92107.50;;;8.91;79.40
64602;BME280;68371;42.630;23.192;2024-03-07T10:51:13;92101.72;;;8.73;82.87
64602;BME280;68371;42.630;23.192;2024-03-07T10:53:52;92094.53;;;8.57;84.18
64602;BME280;68371;42.630;23.192;2024-03-07T10:56:32;92093.03;;;8.56;84.45
64602;BME280;68371;42.630;23.192;2024-03-07T10:59:07;92069.56;;;8.23;86.15
64602;BME280;68371;42.630;23.192;2024-03-07T11:01:43;92088.22;;;8.34;85.50
64602;BME280;68371;42.630;23.192;2024-03-07T11:04:16;92093.69;;;8.41;85.21
64602;BME280;68371;42.630;23.192;2024-03-07T11:06:43;92089.09;;;8.38;86.74
64602;BME280;68371;42.630;23.192;2024-03-07T11:09:11;92087.13;;;8.35;85.99
64602;BME280;68371;42.630;23.192;2024-03-07T11:11:38;92085.69;;;8.13;86.83
64602;BME280;68371;42.630;23.192;2024-03-07T11:14:08;92085.25;;;8.11;86.82
64602;BME280;68371;42.630;23.192;2024-03-07T11:16:37;92083.50;;;8.15;87.52
64602;BME280;68371;42.630;23.192;2024-03-07T11:19:28;92079.38;;;8.14;87.21
64602;BME280;68371;42.630;23.192;2024-03-07T11:22:02;92075.88;;;8.34;85.63
64602;BME280;68371;42.630;23.192;2024-03-07T11:24:39;92071.97;;;8.40;86.88
64602;BME280;68371;42.630;23.192;2024-03-07T11:27:09;92071.31;;;8.56;85.41
64602;BME280;68371;42.630;23.192;2024-03-07T11:29:40;92074.69;;;8.56;85.50
64602;BME280;68371;42.630;23.192;2024-03-07T11:32:09;92070.25;;;8.45;85.69
64602;BME280;68371;42.630;23.192;2024-03-07T11:34:39;92064.66;;;8.34;84.81
64602;BME280;68371;42.630;23.192;2024-03-07T11:37:07;92075.03;;;8.42;86.05
64602;BME280;68371;42.630;23.192;2024-03-07T11:39:43;92065.44;;;8.22;87.45
64602;BME280;68371;42.630;23.192;2024-03-07T11:42:23;92063.56;;;8.22;87.25
64602;BME280;68371;42.630;23.192;2024-03-07T11:44:52;92060.09;;;8.18;86.36
64602;BME280;68371;42.630;23.192;2024-03-07T11:47:21;92065.19;;;8.27;87.53
64602;BME280;68371;42.630;23.192;2024-03-07T11:49:52;92065.22;;;8.39;85.41
64602;BME280;68371;42.630;23.192;2024-03-07T11:52:19;92066.09;;;8.56;85.82
64602;BME280;68371;42.630;23.192;2024-03-07T11:54:46;92063.91;;;8.58;85.05
64602;BME280;68371;42.630;23.192;2024-03-07T11:57:15;92059.09;;;8.60;84.62
64602;BME280;68371;42.630;23.192;2024-03-07T11:59:42;92067.03;;;8.63;84.20
64602;BME280;68371;42.630;23.192;2024-03-07T12:02:12;92056.56;;;8.63;83.14
64602;BME280;68371;42.630;23.192;2024-03-07T12:04:40;92060.72;;;8.65;82.47
64602;BME280;68371;42.630;23.192;2024-03-07T12:07:08;92057.66;;;8.62;84.25
64602;BME280;68371;42.630;23.192;2024-03-07T12:09:37;92032.41;;;8.42;84.63
64602;BME280;68371;42.630;23.192;2024-03-07T12:12:05;92054.06;;;8.67;84.52
64602;BME280;68371;42.630;23.192;2024-03-07T12:14:32;92053.63;;;8.65;83.29
64602;BME280;68371;42.630;23.192;2024-03-07T12:16:59;92058.19;;;8.80;84.92
64602;BME280;68371;42.630;23.192;2024-03-07T12:19:29;92054.16;;;8.71;84.70
64602;BME280;68371;42.630;23.192;2024-03-07T12:21:59;92054.38;;;8.78;83.76
64602;BME280;68371;42.630;23.192;2024-03-07T12:24:29;92049.13;;;8.78;83.37
64602;BME280;68371;42.630;23.192;2024-03-07T12:27:06;92049.44;;;8.89;83.76
64602;BME280;68371;42.630;23.192;2024-03-07T12:29:35;92051.75;;;8.78;82.59
64602;BME280;68371;42.630;23.192;2024-03-07T12:32:03;92059.38;;;8.83;83.19
64602;BME280;68371;42.630;23.192;2024-03-07T12:34:32;92061.81;;;8.63;83.27
64602;BME280;68371;42.630;23.192;2024-03-07T12:37:02;92055.84;;;8.51;85.16
64602;BME280;68371;42.630;23.192;2024-03-07T12:39:31;92047.22;;;8.50;84.29
64602;BME280;68371;42.630;23.192;2024-03-07T12:42:02;92052.13;;;8.39;84.37
64602;BME280;68371;42.630;23.192;2024-03-07T12:44:39;92056.81;;;8.34;85.66
64602;BME280;68371;42.630;23.192;2024-03-07T12:47:09;92055.06;;;8.38;86.73
64602;BME280;68371;42.630;23.192;2024-03-07T12:49:36;91953.72;;;7.73;85.74
64602;BME280;68371;42.630;23.192;2024-03-07T12:52:04;92050.06;;;8.45;85.13
64602;BME280;68371;42.630;23.192;2024-03-07T12:54:34;92053.66;;;8.28;86.12
64602;BME280;68371;42.630;23.192;2024-03-07T12:57:03;92058.22;;;8.19;84.92
64602;BME280;68371;42.630;23.192;2024-03-07T12:59:31;92064.00;;;8.25;86.38
64602;BME280;68371;42.630;23.192;2024-03-07T13:01:58;92064.00;;;8.37;84.46
64602;BME280;68371;42.630;23.192;2024-03-07T13:04:29;92063.81;;;8.42;84.66